• Join FlightAware (Why Join?)
  • Login
  • US Flag 
11:14PM EDT


 

Airport Tracker/Info


-or-


 

Live Flight TrackerFlight Track Log ✈ AAL492 ✈ 27-May-2012 ✈ KMFE - KDFW

Flight Track Log - Related Links

Times and Time Zones

All times are in EDT time to prevent confusion due to time zone crossing. See the AAL492 flight status page for this flight to view local times or setup timezone preferences in your user account.

Time Position Orientation Groundspeed Altitude Reporting Facility
EDT Latitude Longitude Course Direction KTS MPH feet Rate Location/Type
04:09PM 26.2307 -98.2419 173° South  Level FlightAware Approximate
04:09PM 26.1642 -98.2325 North 103 119 1,100  Level Houston Center
04:14PM 26.5658 -98.2117 356° North 351 404 16,500 2,760 Climbing Houston Center
04:15PM 26.6697 -98.2203 356° North 373 429 18,900 2,400 Climbing Houston Center
04:16PM 26.7881 -98.2294 356° North 408 470 21,300 2,100 Climbing Houston Center
04:17PM 26.8919 -98.2381 356° North 413 475 23,200 2,160 Climbing Houston Center
04:18PM 27.0128 -98.2475 357° North 425 489 25,700 2,100 Climbing Houston Center
04:19PM 27.1333 -98.2544 355° North 425 489 27,400 1,980 Climbing Houston Center
04:20PM 27.2581 -98.2667 357° North 436 502 29,700 1,920 Climbing Houston Center
04:21PM 27.3786 -98.2739 356° North 436 502 31,300 1,500 Climbing Houston Center
04:22PM 27.4992 -98.2836 355° North 436 502 32,800 1,260 Climbing Houston Center
04:23PM 27.6217 -98.2956 357° North 436 502 33,900 1,260 Climbing Houston Center
04:24PM 27.7444 -98.3031 356° North 436 502 35,400 1,080 Climbing Houston Center
04:25PM 27.8650 -98.3128 356° North 436 502 36,100 600 Climbing Houston Center
04:26PM 27.9897 -98.3228 357° North 441 507 36,700 420 Climbing Houston Center
04:27PM 28.1106 -98.3303 356° North 441 507 37,000 120 Climbing Houston Center
04:28PM 28.2311 -98.3403 355° North 441 507 37,000  Level Houston Center
04:29PM 28.3536 -98.3525 354° North 441 507 37,000  Level Houston Center
04:30PM 28.4758 -98.3672 357° North 441 507 37,000 -60 Level Houston Center
04:31PM 28.6008 -98.3750 355° North 441 507 36,900  Descending Houston Center
04:32PM 28.7192 -98.3872 356° North 436 502 37,000  Climbing Houston Center
04:33PM 28.8519 -98.3981 357° North 436 502 37,000  Level Houston Center
04:34PM 28.9644 -98.4053 355° North 442 509 37,000  Level Houston Center
04:35PM 29.0972 -98.4186 357° North 437 503 37,000  Level Houston Center
04:36PM 29.2075 -98.4256 356° North 437 503 37,000  Level Houston Center
04:37PM 29.3403 -98.4367 356° North 436 502 37,000  Level Houston Center
04:38PM 29.4525 -98.4464 356° North 438 504 37,000  Level Houston Center
04:39PM 29.5772 -98.4569 North 444 511 37,000  Level Houston Center
04:40PM 29.7192 -98.4519 North 458 527 37,000  Level Houston Center
04:41PM 29.8433 -98.4336 North 458 527 37,000  Level Houston Center
04:42PM 29.9653 -98.4153 North 445 512 37,000  Level Houston Center
04:43PM 30.0911 -98.3972 North 450 518 37,000  Level Houston Center
04:44PM 30.2172 -98.3792 North 450 518 37,000  Level Houston Center
04:45PM 30.3286 -98.3625 North 450 518 37,000  Level Houston Center
04:46PM 30.4547 -98.3444 North 455 524 37,000  Level Houston Center
04:47PM 30.5911 -98.3244 North 455 524 37,000  Level Houston Center
04:48PM 30.7172 -98.3061 North 450 518 37,000  Level Houston Center
04:50PM 30.8844 -98.2797 North 463 533 37,000  Level Fort Worth Center
04:51PM 31.0078 -98.2617 11° North 455 524 37,000 -180 Level Fort Worth Center
04:52PM 31.1333 -98.2336 26° Northeast 455 524 36,700 -1,080 Descending Fort Worth Center
04:53PM 31.2528 -98.1667 24° Northeast 461 531 34,900 -2,400 Descending Fort Worth Center
04:54PM 31.3700 -98.1042 26° Northeast 461 531 32,000 -2,460 Descending Fort Worth Center
04:55PM 31.4747 -98.0442 24° Northeast 461 531 30,000 -2,400 Descending Fort Worth Center
04:56PM 31.5919 -97.9842 26° Northeast 461 531 27,200 -2,460 Descending Fort Worth Center
04:57PM 31.7028 -97.9214 24° Northeast 450 518 25,100 -2,280 Descending Fort Worth Center
04:59PM 31.9225 -97.8050 25° Northeast 425 489 20,500 -2,220 Descending Fort Worth Center
05:00PM 32.0228 -97.7492 25° Northeast 407 468 18,500 -2,160 Descending Fort Worth Center
05:01PM 32.1261 -97.6933 24° Northeast 396 456 16,100 -2,220 Descending FAA TRACON SMA TRACON (SMA)
05:01PM 32.1942 -97.6578 24° Northeast 383 441 14,800 -2,160 Descending FAA TRACON SMA TRACON (SMA)
05:02PM 32.2594 -97.6231 25° Northeast 371 427 13,400 -1,800 Descending FAA TRACON SMA TRACON (SMA)
05:03PM 32.3156 -97.5917 25° Northeast 361 415 12,500 -1,560 Descending FAA TRACON SMA TRACON (SMA)
05:03PM 32.3767 -97.5575 24° Northeast 350 403 11,400 -1,140 Descending FAA TRACON SMA TRACON (SMA)
05:04PM 32.4306 -97.5289 33° Northeast 343 395 11,000 -300 Descending FAA TRACON SMA TRACON (SMA)
05:05PM 32.4856 -97.4869 45° Northeast 342 394 11,000 -120 Level FAA TRACON SMA TRACON (SMA)
05:05PM 32.5314 -97.4322 46° Northeast 337 388 10,900 -120 Descending FAA TRACON SMA TRACON (SMA)
05:06PM 32.5772 -97.3764 46° Northeast 340 391 10,900  Level FAA TRACON SMA TRACON (SMA)
05:07PM 32.6172 -97.3267 45° Northeast 339 390 10,900 60 Level FAA TRACON SMA TRACON (SMA)
05:07PM 32.6622 -97.2733 46° Northeast 324 373 11,000  Climbing FAA TRACON SMA TRACON (SMA)
05:08PM 32.6972 -97.2303 45° Northeast 290 334 10,900 -120 Descending FAA TRACON SMA TRACON (SMA)
05:09PM 32.7347 -97.1856 18° North 271 312 10,900 -180 Level FAA TRACON SMA TRACON (SMA)
05:09PM 32.7814 -97.1678 360° North 270 311 10,700 -960 Descending FAA TRACON SMA TRACON (SMA)
05:10PM 32.8275 -97.1681 359° North 269 310 9,600 -1,680 Descending FAA TRACON SMA TRACON (SMA)
05:11PM 32.8803 -97.1689 North 275 316 8,500 -1,560 Descending FAA TRACON SMA TRACON (SMA)
05:11PM 32.9339 -97.1675 North 276 318 7,600 -1,320 Descending FAA TRACON SMA TRACON (SMA)
05:12PM 32.9797 -97.1661 10° North 268 308 6,800 -1,200 Descending FAA TRACON SMA TRACON (SMA)
05:13PM 33.0278 -97.1556 70° East 261 300 6,000 -1,380 Descending FAA TRACON SMA TRACON (SMA)
05:13PM 33.0414 -97.1119 90° East 234 269 5,000 -1,320 Descending FAA TRACON SMA TRACON (SMA)
05:14PM 33.0411 -97.0686 90° East 193 222 4,300 -1,080 Descending FAA TRACON SMA TRACON (SMA)